This is the latest recevied weather packets stored in our database for station/object OK2ZI. If no packets are shown the sender has not sent any weather packets the latest 10 day(s).
| Time | Temp. | Humidity | Pressure | Rain* | Wind** | Luminosity | Snow |
|---|---|---|---|---|---|---|---|
| 1777516811 | -3.33° C | 70% | 1026 hPa | 0 mm | - | - | - |
| 1777515611 | -2.78° C | 69% | 1026 hPa | 0 mm | - | - | - |
| 1777515366 | -2.78° C | 68% | 1026 hPa | 0 mm | - | - | - |
| 1777515247 | -2.78° C | 69% | 1026 hPa | 0 mm | - | - | - |
| 1777515012 | -2.78° C | 68% | 1026 hPa | 0 mm | - | - | - |
| 1777514887 | -2.78° C | 68% | 1026 hPa | 0 mm | - | - | - |
| 1777514421 | -2.78° C | 69% | 1026 hPa | 0 mm | - | - | - |
| 1777509727 | -4.44° C | 77% | 1026 hPa | 0 mm | - | - | - |
| 1777508646 | -3.33° C | 72% | 1026 hPa | 0 mm | - | - | - |
| 1777508527 | -3.33° C | 71% | 1026 hPa | 0 mm | - | - | - |
| 1777508046 | -3.33° C | 71% | 1026 hPa | 0 mm | - | - | - |
| 1777507565 | -3.33° C | 72% | 1026 hPa | 0 mm | - | - | - |
| 1777506247 | -2.22° C | 67% | 1026 hPa | 0 mm | - | - | - |
| 1777506012 | -1.67° C | 65% | 1026 hPa | 0 mm | - | - | - |
| 1777505887 | -1.67° C | 65% | 1026 hPa | 0 mm | - | - | - |
| 1777504811 | -1.67° C | 64% | 1026 hPa | 0 mm | - | - | - |
| 1777504451 | -1.67° C | 65% | 1026 hPa | 0 mm | - | - | - |
| 1777503622 | -2.22° C | 66% | 1026 hPa | 0 mm | - | - | - |
| 1777502526 | -2.78° C | 67% | 1026 hPa | 0 mm | - | - | - |
| 1777502166 | -3.33° C | 72% | 1026 hPa | 0 mm | - | - | - |
| 1777499887 | -3.89° C | 76% | 1025 hPa | 0 mm | - | - | - |
| 1777498567 | -3.33° C | 74% | 1025 hPa | 0 mm | - | - | - |
| 1777498327 | -2.78° C | 70% | 1025 hPa | 0 mm | - | - | - |
| 1777497967 | -1.67° C | 63% | 1025 hPa | 0 mm | - | - | - |
| 1777497611 | -1.67° C | 62% | 1025 hPa | 0 mm | - | - | - |
* Rain latest hour (hover to see other rain measurements)
** Current wind speed in m/s (hover to see current wind gust speed)